createdAt,value
2023-02-11T00:02:00.956Z,-5.70
2023-02-11T00:04:28.978Z,-5.90
2023-02-11T00:06:56.925Z,-6.00
2023-02-11T00:09:24.885Z,-6.10
2023-02-11T00:11:52.856Z,-6.10
2023-02-11T00:14:20.793Z,-6.10
2023-02-11T00:16:48.895Z,-6.10
2023-02-11T00:19:18.246Z,-6.10
2023-02-11T00:21:46.177Z,-6.20
2023-02-11T00:24:14.209Z,-6.00
2023-02-11T00:26:42.206Z,-6.00
2023-02-11T00:29:11.775Z,-5.90
2023-02-11T00:31:39.859Z,-5.90
2023-02-11T00:34:07.911Z,-6.00
2023-02-11T00:36:37.569Z,-6.10
2023-02-11T00:39:05.616Z,-6.10
2023-02-11T00:41:34.002Z,-6.20
2023-02-11T00:44:02.599Z,-6.50
2023-02-11T00:46:30.731Z,-6.50
2023-02-11T00:48:58.732Z,-6.50
2023-02-11T00:51:27.213Z,-6.50
2023-02-11T00:53:56.556Z,-6.60
2023-02-11T00:56:24.551Z,-6.70
2023-02-11T00:58:53.336Z,-6.70
2023-02-11T01:01:21.491Z,-6.70
2023-02-11T01:03:49.478Z,-6.70
2023-02-11T01:06:17.535Z,-6.60
2023-02-11T01:08:45.970Z,-6.60
2023-02-11T01:11:17.469Z,-6.50
2023-02-11T01:13:45.780Z,-6.60
2023-02-11T01:16:14.298Z,-6.60
2023-02-11T01:18:44.299Z,-6.70
2023-02-11T01:21:12.338Z,-6.70
2023-02-11T01:23:40.495Z,-6.70
2023-02-11T01:26:08.647Z,-6.70
2023-02-11T01:28:38.024Z,-6.70
2023-02-11T01:31:06.187Z,-6.70
2023-02-11T01:33:34.579Z,-6.60
2023-02-11T01:36:03.679Z,-6.70
2023-02-11T01:38:31.907Z,-6.60
2023-02-11T01:41:02.467Z,-6.70
2023-02-11T01:43:33.914Z,-6.80
2023-02-11T01:46:14.761Z,-6.80
2023-02-11T01:48:45.670Z,-6.70
2023-02-11T01:51:17.799Z,-6.70
2023-02-11T01:54:04.820Z,-6.60
2023-02-11T01:56:51.925Z,-6.70
2023-02-11T01:59:23.954Z,-6.80
2023-02-11T02:01:58.119Z,-6.80
2023-02-11T02:04:34.089Z,-6.80
2023-02-11T02:07:07.344Z,-6.70
2023-02-11T02:09:40.534Z,-6.60
2023-02-11T02:12:08.567Z,-6.60
2023-02-11T02:14:40.326Z,-6.50
2023-02-11T02:17:27.363Z,-6.30
2023-02-11T02:20:16.212Z,-6.10
2023-02-11T02:23:08.341Z,-6.00
2023-02-11T02:25:57.861Z,-5.80
2023-02-11T02:29:08.041Z,-5.70
2023-02-11T02:31:54.217Z,-5.60
2023-02-11T02:34:31.678Z,-5.60
2023-02-11T02:37:05.446Z,-5.60
2023-02-11T02:39:36.449Z,-5.50
2023-02-11T02:42:06.036Z,-5.20
2023-02-11T02:44:34.724Z,-5.00
2023-02-11T02:47:02.789Z,-5.00
2023-02-11T02:49:32.089Z,-5.00
2023-02-11T02:52:11.033Z,-5.10
2023-02-11T02:55:08.684Z,-5.00
2023-02-11T02:57:47.956Z,-4.90
2023-02-11T03:00:25.034Z,-4.90
2023-02-11T03:03:08.951Z,-4.90
2023-02-11T03:05:49.577Z,-4.80
2023-02-11T03:08:24.255Z,-5.10
2023-02-11T03:10:53.860Z,-4.90
2023-02-11T03:13:28.175Z,-4.70
2023-02-11T03:15:59.612Z,-4.70
2023-02-11T03:18:30.488Z,-4.60
2023-02-11T03:21:01.033Z,-4.50
2023-02-11T03:23:34.205Z,-4.50
2023-02-11T03:26:09.337Z,-4.40
2023-02-11T03:28:44.071Z,-4.20
2023-02-11T03:31:16.948Z,-4.20
2023-02-11T03:33:53.081Z,-4.20
2023-02-11T03:36:28.203Z,-4.10
2023-02-11T03:38:59.547Z,-4.10
2023-02-11T03:41:27.588Z,-4.10
2023-02-11T03:43:58.126Z,-4.00
2023-02-11T03:46:31.577Z,-4.10
2023-02-11T03:49:04.442Z,-4.00
2023-02-11T03:51:35.755Z,-4.20
2023-02-11T03:54:09.943Z,-4.20
2023-02-11T03:56:45.914Z,-4.10
2023-02-11T03:59:13.882Z,-4.10
2023-02-11T04:01:42.253Z,-4.20
2023-02-11T04:04:10.328Z,-4.00
2023-02-11T04:06:39.849Z,-3.90
2023-02-11T04:09:07.868Z,-4.10
2023-02-11T04:11:36.024Z,-4.50
2023-02-11T04:14:03.991Z,-4.70
2023-02-11T04:16:31.957Z,-4.60
2023-02-11T04:19:00.753Z,-4.50
2023-02-11T04:21:28.653Z,-4.40
2023-02-11T04:23:57.918Z,-4.60
2023-02-11T04:26:25.873Z,-4.70
2023-02-11T04:28:53.788Z,-4.80
2023-02-11T04:31:21.850Z,-4.40
2023-02-11T04:33:49.923Z,-4.40
2023-02-11T04:36:17.965Z,-4.20
2023-02-11T04:38:45.913Z,-4.20
2023-02-11T04:41:15.628Z,-4.10
2023-02-11T04:43:43.586Z,-4.20
2023-02-11T04:46:11.565Z,-4.10
2023-02-11T04:48:39.531Z,-4.20
2023-02-11T04:51:07.644Z,-4.60
2023-02-11T04:53:35.592Z,-4.40
2023-02-11T04:56:03.532Z,-4.20
2023-02-11T04:58:32.841Z,-4.20
2023-02-11T05:01:07.194Z,-4.20
2023-02-11T05:03:35.333Z,-4.10
2023-02-11T05:06:03.440Z,-4.20
2023-02-11T05:08:31.579Z,-4.10
2023-02-11T05:10:59.556Z,-3.90
2023-02-11T05:13:27.435Z,-3.90
2023-02-11T05:15:56.854Z,-3.80
2023-02-11T05:18:25.093Z,-3.80
2023-02-11T05:20:53.001Z,-3.70
2023-02-11T05:23:20.939Z,-3.80
2023-02-11T05:25:49.236Z,-3.80
2023-02-11T05:28:17.526Z,-3.90
2023-02-11T05:30:45.486Z,-3.90
2023-02-11T05:33:14.863Z,-3.80
2023-02-11T05:35:42.744Z,-3.60
2023-02-11T05:38:10.629Z,-3.50
2023-02-11T05:40:38.948Z,-3.50
2023-02-11T05:43:07.023Z,-3.40
2023-02-11T05:45:35.448Z,-3.20
2023-02-11T05:48:05.669Z,-3.10
2023-02-11T05:50:35.030Z,-3.10
2023-02-11T05:53:03.433Z,-3.10
2023-02-11T05:55:31.569Z,-3.10
2023-02-11T05:57:59.649Z,-2.90
2023-02-11T06:00:28.197Z,-2.90
2023-02-11T06:02:56.189Z,-3.40
2023-02-11T06:05:24.157Z,-3.20
2023-02-11T06:07:53.531Z,-3.20
2023-02-11T06:10:21.817Z,-3.10
2023-02-11T06:12:49.725Z,-2.90
2023-02-11T06:15:17.931Z,-2.80
2023-02-11T06:17:45.839Z,-2.60
2023-02-11T06:20:14.254Z,-2.50
2023-02-11T06:22:42.260Z,-2.40
2023-02-11T06:25:12.047Z,-2.40
2023-02-11T06:27:40.408Z,-2.30
2023-02-11T06:30:09.636Z,-2.20
2023-02-11T06:32:46.002Z,-2.30
2023-02-11T06:35:15.220Z,-2.40
2023-02-11T06:37:43.414Z,-2.50
2023-02-11T06:40:13.527Z,-2.40
2023-02-11T06:42:41.634Z,-2.20
2023-02-11T06:45:10.912Z,-2.10
2023-02-11T06:47:38.972Z,-2.20
2023-02-11T06:50:09.178Z,-2.30
2023-02-11T06:52:37.380Z,-2.30
2023-02-11T06:55:05.724Z,-2.10
2023-02-11T06:57:35.076Z,-1.90
2023-02-11T07:00:03.013Z,-1.80
2023-02-11T07:02:31.026Z,-1.50
2023-02-11T07:04:59.053Z,-1.60
2023-02-11T07:07:28.348Z,-1.80
2023-02-11T07:09:56.223Z,-1.60
2023-02-11T07:12:24.196Z,-1.10
2023-02-11T07:14:53.916Z,-0.90
2023-02-11T07:17:21.820Z,-0.80
2023-02-11T07:19:49.920Z,-0.60
2023-02-11T07:22:17.979Z,-0.60
2023-02-11T07:24:46.352Z,-0.60
2023-02-11T07:27:14.653Z,-0.60
2023-02-11T07:29:43.801Z,-0.40
2023-02-11T07:32:13.411Z,-0.50
2023-02-11T07:34:42.458Z,-0.60
2023-02-11T07:37:10.897Z,-0.40
2023-02-11T07:39:38.871Z,-0.20
2023-02-11T07:42:07.232Z,-0.10
2023-02-11T07:44:36.829Z,-0.20
2023-02-11T07:47:04.910Z,-0.50
2023-02-11T07:49:34.269Z,-0.50
2023-02-11T07:52:02.294Z,-0.40
2023-02-11T07:54:30.281Z,-0.30
2023-02-11T07:56:58.797Z,-0.30
2023-02-11T07:59:27.530Z,-0.30
2023-02-11T08:01:55.657Z,-0.10
2023-02-11T08:04:23.724Z,0.00
2023-02-11T08:06:56.495Z,0.10
2023-02-11T08:09:25.843Z,-0.10
2023-02-11T08:11:53.795Z,0.00
2023-02-11T08:14:21.824Z,0.10
2023-02-11T08:16:49.820Z,0.20
2023-02-11T08:19:18.325Z,0.20
2023-02-11T08:21:46.980Z,0.20
2023-02-11T08:24:16.859Z,0.20
2023-02-11T08:26:44.913Z,0.30
2023-02-11T08:29:14.497Z,0.30
2023-02-11T08:31:44.729Z,0.30
2023-02-11T08:34:14.433Z,0.30
2023-02-11T08:36:44.685Z,0.30
2023-02-11T08:39:20.265Z,0.10
2023-02-11T08:41:49.737Z,0.40
2023-02-11T08:44:18.471Z,0.60
2023-02-11T08:46:46.503Z,1.00
2023-02-11T08:49:15.471Z,1.30
2023-02-11T08:51:43.668Z,1.40
2023-02-11T08:54:11.686Z,1.50
2023-02-11T08:56:41.032Z,1.60
2023-02-11T08:59:10.233Z,1.80
2023-02-11T09:01:38.390Z,2.10
2023-02-11T09:04:06.676Z,2.40
2023-02-11T09:06:34.625Z,2.40
2023-02-11T09:09:02.654Z,2.20
2023-02-11T09:11:33.698Z,2.10
2023-02-11T09:14:03.791Z,2.00
2023-02-11T09:16:34.064Z,1.60
2023-02-11T09:19:03.795Z,1.30
2023-02-11T09:21:32.989Z,1.50
2023-02-11T09:24:00.995Z,1.90
2023-02-11T09:26:31.773Z,2.40
2023-02-11T09:29:00.776Z,2.60
2023-02-11T09:31:32.343Z,3.00
2023-02-11T09:34:01.866Z,3.30
2023-02-11T09:36:31.835Z,3.80
2023-02-11T09:39:02.237Z,3.70
2023-02-11T09:42:15.275Z,4.10
2023-02-11T09:44:46.038Z,3.40
2023-02-11T09:47:25.663Z,3.60
2023-02-11T09:49:57.136Z,3.80
2023-02-11T09:52:34.572Z,3.90
2023-02-11T09:55:04.800Z,4.30
2023-02-11T09:57:35.338Z,3.80
2023-02-11T10:00:16.686Z,3.70
2023-02-11T10:03:15.338Z,3.50
2023-02-11T10:05:58.328Z,3.70
2023-02-11T10:08:37.661Z,3.50
2023-02-11T10:11:22.575Z,3.50
2023-02-11T10:14:04.871Z,3.50
2023-02-11T10:16:49.696Z,3.50
2023-02-11T10:19:50.609Z,3.50
2023-02-11T10:22:23.614Z,3.20
2023-02-11T10:24:54.524Z,3.60
2023-02-11T10:27:32.158Z,3.50
2023-02-11T10:30:03.714Z,3.60
2023-02-11T10:32:39.610Z,3.70
2023-02-11T10:35:17.948Z,3.70
2023-02-11T10:37:46.325Z,3.40
2023-02-11T10:40:16.452Z,3.30
2023-02-11T10:42:50.301Z,3.50
2023-02-11T10:45:24.432Z,3.30
2023-02-11T10:47:52.525Z,3.60
2023-02-11T10:50:25.335Z,3.50
2023-02-11T10:52:53.293Z,3.60
2023-02-11T10:55:25.253Z,3.50
2023-02-11T10:57:59.289Z,3.20
2023-02-11T11:00:39.008Z,3.50
2023-02-11T11:03:17.524Z,3.70
2023-02-11T11:05:50.591Z,3.80
2023-02-11T11:08:19.840Z,4.10
2023-02-11T11:10:50.372Z,4.20
2023-02-11T11:13:30.744Z,4.40
2023-02-11T11:16:32.252Z,4.40
2023-02-11T11:19:22.131Z,4.60
2023-02-11T11:21:53.508Z,4.50
2023-02-11T11:24:25.532Z,4.50
2023-02-11T11:26:57.763Z,4.50
2023-02-11T11:29:33.790Z,4.20
2023-02-11T11:32:05.438Z,4.30
2023-02-11T11:34:37.148Z,4.40
2023-02-11T11:37:15.423Z,4.40
2023-02-11T11:39:43.624Z,4.40
2023-02-11T11:42:26.902Z,4.20
2023-02-11T11:45:00.774Z,3.90
2023-02-11T11:47:35.147Z,3.90
2023-02-11T11:50:24.513Z,3.80
2023-02-11T11:53:00.107Z,3.80
2023-02-11T11:55:32.944Z,4.10
2023-02-11T11:58:01.090Z,3.70
2023-02-11T12:00:36.165Z,3.50
2023-02-11T12:03:48.746Z,3.70
2023-02-11T12:06:27.617Z,3.90
2023-02-11T12:09:08.987Z,4.10
2023-02-11T12:11:47.556Z,4.40
2023-02-11T12:14:29.369Z,3.80
2023-02-11T12:17:05.253Z,3.70
2023-02-11T12:19:56.515Z,3.80
2023-02-11T12:22:38.967Z,3.70
2023-02-11T12:25:25.618Z,3.90
2023-02-11T12:28:04.198Z,4.00
2023-02-11T12:31:07.539Z,3.80
2023-02-11T12:33:52.886Z,4.00
2023-02-11T12:36:33.188Z,4.00
2023-02-11T12:39:13.853Z,4.10
2023-02-11T12:42:22.492Z,4.20
2023-02-11T12:45:09.219Z,4.30
2023-02-11T12:47:47.331Z,4.50
2023-02-11T12:50:23.248Z,4.10
2023-02-11T12:53:10.768Z,3.80
2023-02-11T12:55:44.293Z,3.90
2023-02-11T12:58:18.712Z,3.50
2023-02-11T13:00:52.682Z,3.30
2023-02-11T13:03:26.497Z,3.40
2023-02-11T13:05:57.975Z,3.40
2023-02-11T13:08:31.640Z,3.60
2023-02-11T13:11:03.253Z,3.80
2023-02-11T13:13:37.202Z,3.80
2023-02-11T13:16:07.823Z,3.80
2023-02-11T13:18:49.299Z,3.90
2023-02-11T13:21:39.164Z,3.90
2023-02-11T13:24:16.756Z,3.80
2023-02-11T13:26:53.154Z,3.70
2023-02-11T13:29:30.759Z,3.70
2023-02-11T13:32:08.541Z,3.70
2023-02-11T13:34:56.237Z,3.80
2023-02-11T13:37:26.440Z,3.80
2023-02-11T13:39:59.497Z,3.70
2023-02-11T13:42:28.172Z,3.50
2023-02-11T13:44:58.047Z,3.70
2023-02-11T13:47:33.389Z,3.80
2023-02-11T13:50:03.412Z,3.70
2023-02-11T13:52:34.883Z,3.60
2023-02-11T13:55:10.706Z,3.60
2023-02-11T13:57:40.583Z,3.50
2023-02-11T14:00:45.881Z,3.60
2023-02-11T14:03:50.558Z,3.50
2023-02-11T14:06:41.094Z,3.60
2023-02-11T14:09:37.668Z,3.40
2023-02-11T14:12:26.068Z,3.50
2023-02-11T14:15:19.827Z,3.60
2023-02-11T14:17:49.112Z,3.60
2023-02-11T14:20:37.483Z,3.40
2023-02-11T14:23:06.689Z,3.40
2023-02-11T14:25:34.955Z,3.50
2023-02-11T14:28:11.267Z,3.70
2023-02-11T14:31:01.430Z,3.60
2023-02-11T14:34:03.770Z,3.40
2023-02-11T14:37:05.887Z,3.50
2023-02-11T14:39:47.325Z,3.40
2023-02-11T14:42:20.817Z,3.30
2023-02-11T14:44:51.210Z,3.40
2023-02-11T14:47:23.833Z,3.40
2023-02-11T14:49:53.175Z,3.50
2023-02-11T14:52:28.488Z,3.50
2023-02-11T14:55:06.001Z,3.50
2023-02-11T14:57:34.395Z,3.50
2023-02-11T15:00:06.330Z,3.40
2023-02-11T15:02:36.869Z,3.20
2023-02-11T15:05:22.340Z,3.40
2023-02-11T15:07:53.887Z,3.50
2023-02-11T15:10:31.296Z,3.30
2023-02-11T15:13:00.578Z,3.00
2023-02-11T15:15:29.313Z,2.80
2023-02-11T15:18:01.975Z,3.10
2023-02-11T15:20:33.358Z,2.90
2023-02-11T15:23:04.145Z,3.20
2023-02-11T15:25:34.177Z,3.30
2023-02-11T15:28:02.628Z,3.50
2023-02-11T15:30:34.207Z,3.50
2023-02-11T15:33:05.648Z,3.40
2023-02-11T15:35:36.805Z,3.50
2023-02-11T15:38:06.097Z,3.70
2023-02-11T15:40:36.235Z,3.30
2023-02-11T15:43:06.380Z,3.30
2023-02-11T15:45:36.124Z,3.10
2023-02-11T15:48:10.575Z,3.20
2023-02-11T15:50:41.991Z,3.20
2023-02-11T15:53:31.958Z,3.20
2023-02-11T15:56:09.729Z,3.10
2023-02-11T15:58:38.669Z,3.00
2023-02-11T16:01:07.639Z,2.80
2023-02-11T16:03:35.905Z,2.80
2023-02-11T16:06:23.332Z,2.90
2023-02-11T16:09:02.721Z,2.80
2023-02-11T16:11:32.544Z,2.70
2023-02-11T16:14:04.133Z,2.80
2023-02-11T16:16:35.449Z,2.70
2023-02-11T16:19:06.533Z,2.80
2023-02-11T16:21:38.997Z,2.70
2023-02-11T16:24:08.935Z,2.70
2023-02-11T16:26:41.043Z,2.60
2023-02-11T16:29:13.291Z,2.70
2023-02-11T16:31:43.293Z,2.70
2023-02-11T16:34:16.983Z,2.40
2023-02-11T16:36:47.132Z,2.40
2023-02-11T16:39:16.705Z,2.40
2023-02-11T16:41:44.823Z,2.40
2023-02-11T16:44:12.711Z,2.40
2023-02-11T16:46:40.828Z,2.50
2023-02-11T16:49:13.713Z,2.50
2023-02-11T16:51:43.662Z,2.60
2023-02-11T16:54:17.856Z,2.60
2023-02-11T16:56:46.043Z,2.60
2023-02-11T16:59:14.151Z,2.60
2023-02-11T17:01:44.147Z,2.60
2023-02-11T17:04:18.604Z,2.50
2023-02-11T17:06:48.009Z,2.50
2023-02-11T17:09:20.718Z,2.70
2023-02-11T17:11:49.055Z,2.60
2023-02-11T17:14:17.299Z,2.60
2023-02-11T17:16:46.365Z,2.70
2023-02-11T17:19:16.214Z,2.90
2023-02-11T17:21:44.713Z,2.90
2023-02-11T17:24:14.286Z,2.80
2023-02-11T17:26:44.025Z,2.80
2023-02-11T17:29:14.053Z,2.70
2023-02-11T17:31:42.581Z,2.90
2023-02-11T17:34:11.030Z,2.90
2023-02-11T17:36:41.228Z,2.80
2023-02-11T17:39:09.820Z,2.90
2023-02-11T17:41:38.201Z,2.70
2023-02-11T17:44:08.367Z,2.80
2023-02-11T17:46:36.568Z,2.60
2023-02-11T17:49:05.274Z,2.40
2023-02-11T17:51:35.189Z,2.50
2023-02-11T17:54:05.349Z,2.30
2023-02-11T17:56:35.306Z,2.30
2023-02-11T17:59:04.156Z,2.40
2023-02-11T18:01:35.392Z,2.30
2023-02-11T18:04:04.218Z,2.20
2023-02-11T18:06:33.708Z,2.30
2023-02-11T18:09:04.149Z,2.30
2023-02-11T18:11:34.862Z,2.40
2023-02-11T18:14:04.589Z,2.20
2023-02-11T18:16:35.231Z,2.00
2023-02-11T18:19:03.741Z,1.90
2023-02-11T18:21:32.180Z,1.90
2023-02-11T18:24:05.996Z,1.90
2023-02-11T18:26:34.948Z,1.80
2023-02-11T18:29:03.771Z,1.90
2023-02-11T18:31:35.172Z,1.70
2023-02-11T18:34:03.637Z,1.80
2023-02-11T18:36:32.308Z,1.90
2023-02-11T18:39:00.593Z,1.90
2023-02-11T18:41:28.889Z,1.80
2023-02-11T18:44:02.609Z,1.70
2023-02-11T18:46:31.298Z,1.90
2023-02-11T18:49:00.925Z,2.00
2023-02-11T18:51:31.789Z,1.80
2023-02-11T18:54:01.105Z,1.70
2023-02-11T18:56:29.550Z,1.60
2023-02-11T18:59:01.105Z,1.70
2023-02-11T19:01:30.965Z,1.80
2023-02-11T19:04:02.820Z,1.90
2023-02-11T19:06:36.241Z,1.80
2023-02-11T19:09:11.308Z,2.00
2023-02-11T19:11:58.106Z,2.20
2023-02-11T19:14:28.437Z,2.20
2023-02-11T19:16:58.672Z,2.40
2023-02-11T19:19:29.901Z,2.50
2023-02-11T19:21:58.765Z,2.50
2023-02-11T19:24:27.683Z,2.30
2023-02-11T19:26:58.315Z,2.30
2023-02-11T19:29:26.428Z,2.50
2023-02-11T19:31:54.679Z,2.60
2023-02-11T19:34:23.170Z,2.70
2023-02-11T19:36:54.107Z,2.80
2023-02-11T19:39:24.001Z,2.80
2023-02-11T19:41:51.925Z,2.70
2023-02-11T19:44:20.675Z,2.70
2023-02-11T19:46:50.197Z,2.60
2023-02-11T19:49:22.844Z,2.70
2023-02-11T19:51:52.780Z,2.80
2023-02-11T19:54:21.443Z,2.40
2023-02-11T19:56:49.947Z,2.50
2023-02-11T19:59:17.891Z,2.60
2023-02-11T20:01:47.753Z,2.60
2023-02-11T20:04:15.954Z,2.40
2023-02-11T20:06:43.897Z,2.50
2023-02-11T20:09:15.316Z,2.50
2023-02-11T20:11:43.996Z,2.40
2023-02-11T20:14:14.755Z,2.30
2023-02-11T20:16:49.258Z,2.20
2023-02-11T20:19:19.452Z,2.40
2023-02-11T20:21:50.076Z,2.40
2023-02-11T20:24:20.798Z,2.30
2023-02-11T20:26:49.232Z,2.40
2023-02-11T20:29:18.234Z,2.40
2023-02-11T20:31:46.681Z,2.40
2023-02-11T20:34:17.432Z,2.50
2023-02-11T20:36:51.398Z,2.50
2023-02-11T20:39:22.402Z,2.50
2023-02-11T20:41:51.272Z,2.50
2023-02-11T20:44:19.308Z,2.50
2023-02-11T20:46:47.605Z,2.40
2023-02-11T20:49:18.692Z,2.30
2023-02-11T20:51:47.006Z,2.40
2023-02-11T20:54:17.114Z,2.40
2023-02-11T20:56:48.256Z,2.30
2023-02-11T20:59:17.188Z,2.30
2023-02-11T21:01:46.952Z,2.30
2023-02-11T21:04:16.639Z,2.20
2023-02-11T21:06:47.143Z,2.20
2023-02-11T21:09:19.566Z,2.30
2023-02-11T21:11:51.485Z,2.10
2023-02-11T21:14:20.305Z,2.10
2023-02-11T21:16:48.614Z,2.20
2023-02-11T21:19:17.288Z,2.20
2023-02-11T21:21:45.278Z,2.20
2023-02-11T21:24:13.657Z,2.20
2023-02-11T21:26:41.587Z,2.30
2023-02-11T21:29:11.580Z,2.30
2023-02-11T21:31:39.795Z,2.20
2023-02-11T21:34:08.166Z,2.10
2023-02-11T21:36:36.271Z,2.10
2023-02-11T21:39:05.831Z,2.20
2023-02-11T21:41:34.044Z,2.30
2023-02-11T21:44:02.064Z,2.30
2023-02-11T21:46:32.008Z,2.20
2023-02-11T21:49:00.367Z,2.10
2023-02-11T21:51:28.518Z,1.90
2023-02-11T21:53:58.216Z,1.90
2023-02-11T21:56:27.978Z,2.00
2023-02-11T21:58:58.289Z,2.00
2023-02-11T22:01:28.352Z,1.90
2023-02-11T22:03:57.915Z,1.90
2023-02-11T22:06:27.533Z,1.90
2023-02-11T22:08:56.299Z,2.00
2023-02-11T22:11:25.110Z,2.10
2023-02-11T22:13:54.795Z,2.10
2023-02-11T22:16:23.183Z,2.10
2023-02-11T22:18:51.437Z,2.00
2023-02-11T22:21:22.482Z,2.10
2023-02-11T22:23:50.940Z,2.20
2023-02-11T22:26:21.664Z,2.20
2023-02-11T22:28:50.689Z,2.10
2023-02-11T22:31:20.989Z,2.20
2023-02-11T22:33:49.882Z,2.20
2023-02-11T22:36:21.518Z,2.10
2023-02-11T22:38:49.859Z,2.00
2023-02-11T22:41:18.304Z,2.10
2023-02-11T22:43:46.570Z,2.00
2023-02-11T22:46:15.948Z,2.10
2023-02-11T22:48:44.033Z,2.00
2023-02-11T22:51:13.832Z,2.10
2023-02-11T22:53:43.564Z,1.80
2023-02-11T22:56:15.368Z,1.70
2023-02-11T22:58:44.233Z,1.90
2023-02-11T23:01:12.806Z,1.90
2023-02-11T23:03:40.840Z,2.00
2023-02-11T23:06:09.656Z,2.00
2023-02-11T23:08:39.467Z,1.90
2023-02-11T23:11:10.591Z,1.90
2023-02-11T23:13:40.885Z,2.10
2023-02-11T23:16:11.140Z,2.20
2023-02-11T23:18:41.243Z,2.20
2023-02-11T23:21:12.506Z,2.10
2023-02-11T23:23:41.130Z,2.30
2023-02-11T23:26:13.227Z,2.40
2023-02-11T23:28:41.514Z,2.30
2023-02-11T23:31:17.689Z,2.30
2023-02-11T23:33:45.822Z,2.20
2023-02-11T23:36:14.064Z,2.30
2023-02-11T23:38:42.023Z,2.30
2023-02-11T23:41:11.758Z,2.20
2023-02-11T23:43:39.984Z,2.20
2023-02-11T23:46:09.248Z,2.10
2023-02-11T23:48:37.672Z,2.20
2023-02-11T23:51:06.414Z,2.20
2023-02-11T23:53:34.330Z,2.10
2023-02-11T23:56:02.247Z,2.10
2023-02-11T23:58:31.622Z,2.20
